createdAt,value
2019-05-10T00:00:22.413Z,7.70
2019-05-10T00:03:11.655Z,6.30
2019-05-10T00:06:03.929Z,6.93
2019-05-10T00:08:49.459Z,6.77
2019-05-10T00:11:48.782Z,7.63
2019-05-10T00:14:49.926Z,8.57
2019-05-10T00:17:22.946Z,9.10
2019-05-10T00:19:54.651Z,8.00
2019-05-10T00:22:26.576Z,9.43
2019-05-10T00:25:04.211Z,7.20
2019-05-10T00:27:31.737Z,7.63
2019-05-10T00:30:03.473Z,8.63
2019-05-10T00:32:36.315Z,8.23
2019-05-10T00:35:08.204Z,8.60
2019-05-10T00:37:39.863Z,8.23
2019-05-10T00:40:11.657Z,8.63
2019-05-10T00:42:45.008Z,9.17
2019-05-10T00:45:16.731Z,8.83
2019-05-10T00:47:48.381Z,8.27
2019-05-10T00:50:22.152Z,10.00
2019-05-10T00:52:53.884Z,8.40
2019-05-10T00:55:25.599Z,9.43
2019-05-10T00:57:57.241Z,9.47
2019-05-10T01:00:28.916Z,9.47
2019-05-10T01:03:00.611Z,8.53
2019-05-10T01:05:33.347Z,8.83
2019-05-10T01:08:05.025Z,8.97
2019-05-10T01:10:36.631Z,8.50
2019-05-10T01:13:08.323Z,8.70
2019-05-10T01:15:41.033Z,9.53
2019-05-10T01:18:12.855Z,9.73
2019-05-10T01:20:44.589Z,9.03
2019-05-10T01:23:16.349Z,9.60
2019-05-10T01:25:47.984Z,10.40
2019-05-10T01:28:19.722Z,11.60
2019-05-10T01:30:51.526Z,10.77
2019-05-10T01:33:23.282Z,10.23
2019-05-10T01:35:54.942Z,9.60
2019-05-10T01:38:26.621Z,12.10
2019-05-10T01:40:58.236Z,10.77
2019-05-10T01:43:29.901Z,9.97
2019-05-10T01:46:01.548Z,9.10
2019-05-10T01:48:33.260Z,11.27
2019-05-10T01:51:06.830Z,10.33
2019-05-10T01:53:38.505Z,12.37
2019-05-10T01:56:10.297Z,10.03
2019-05-10T01:58:42.038Z,11.23
2019-05-10T02:01:16.917Z,11.30
2019-05-10T02:03:48.827Z,11.00
2019-05-10T02:06:20.648Z,11.50
2019-05-10T02:08:52.371Z,10.73
2019-05-10T02:11:24.136Z,10.73
2019-05-10T02:13:55.863Z,10.80
2019-05-10T02:16:27.591Z,10.80
2019-05-10T02:18:59.370Z,10.83
2019-05-10T02:21:30.998Z,10.83
2019-05-10T02:24:02.688Z,11.20
2019-05-10T02:26:34.381Z,10.43
2019-05-10T02:29:06.187Z,9.50
2019-05-10T02:31:38.774Z,10.77
2019-05-10T02:34:10.410Z,9.40
2019-05-10T02:36:42.078Z,9.77
2019-05-10T02:39:13.900Z,9.33
2019-05-10T02:41:45.559Z,10.50
2019-05-10T02:44:17.204Z,9.77
2019-05-10T02:46:49.856Z,9.03
2019-05-10T02:49:21.596Z,10.60
2019-05-10T02:51:53.239Z,10.10
2019-05-10T02:54:24.894Z,10.17
2019-05-10T02:56:57.599Z,10.20
2019-05-10T02:59:30.843Z,10.97
2019-05-10T03:02:05.892Z,10.20
2019-05-10T03:04:38.531Z,10.60
2019-05-10T03:07:10.425Z,9.50
2019-05-10T03:09:42.177Z,10.97
2019-05-10T03:12:33.009Z,10.60
2019-05-10T03:15:06.976Z,10.50
2019-05-10T03:17:41.981Z,11.17
2019-05-10T03:20:16.686Z,10.63
2019-05-10T03:22:48.895Z,9.67
2019-05-10T03:25:20.539Z,10.23
2019-05-10T03:27:52.287Z,11.30
2019-05-10T03:30:23.958Z,10.50
2019-05-10T03:32:55.641Z,10.90
2019-05-10T03:35:27.373Z,13.47
2019-05-10T03:37:59.017Z,13.57
2019-05-10T03:40:30.784Z,16.23
2019-05-10T03:43:02.434Z,13.17
2019-05-10T03:45:34.090Z,13.10
2019-05-10T03:48:05.740Z,14.50
2019-05-10T03:50:37.346Z,15.00
2019-05-10T03:53:11.999Z,15.47
2019-05-10T03:55:43.629Z,15.13
2019-05-10T03:58:15.425Z,15.90
2019-05-10T04:00:47.046Z,16.17
2019-05-10T04:03:18.877Z,16.13
2019-05-10T04:05:50.519Z,16.30
2019-05-10T04:08:22.379Z,16.87
2019-05-10T04:10:54.365Z,16.50
2019-05-10T04:13:26.008Z,15.50
2019-05-10T04:15:57.630Z,15.87
2019-05-10T04:18:29.354Z,16.33
2019-05-10T04:21:00.969Z,19.67
2019-05-10T04:23:32.586Z,18.30
2019-05-10T04:26:05.384Z,18.20
2019-05-10T04:28:37.038Z,19.83
2019-05-10T04:31:08.749Z,20.10
2019-05-10T04:33:40.549Z,18.43
2019-05-10T04:36:12.999Z,20.10
2019-05-10T04:38:44.786Z,19.93
2019-05-10T04:41:16.490Z,20.53
2019-05-10T04:43:48.336Z,21.33
2019-05-10T04:46:19.915Z,20.93
2019-05-10T04:48:51.636Z,21.50
2019-05-10T04:51:23.263Z,20.60
2019-05-10T04:53:55.041Z,21.07
2019-05-10T04:56:26.651Z,20.43
2019-05-10T04:58:58.445Z,20.50
2019-05-10T05:01:30.079Z,20.73
2019-05-10T05:04:01.827Z,20.60
2019-05-10T05:06:33.612Z,22.20
2019-05-10T05:09:08.260Z,21.20
2019-05-10T05:11:39.983Z,23.13
2019-05-10T05:14:12.950Z,20.97
2019-05-10T05:26:08.737Z,21.67
2019-05-10T05:28:41.210Z,23.50
2019-05-10T05:31:16.068Z,22.50
2019-05-10T05:33:48.056Z,23.43
2019-05-10T05:36:20.114Z,22.93
2019-05-10T05:38:52.086Z,24.33
2019-05-10T05:41:23.880Z,22.43
2019-05-10T05:43:57.409Z,22.40
2019-05-10T05:46:29.237Z,23.77
2019-05-10T05:49:00.851Z,24.23
2019-05-10T05:51:32.555Z,27.50
2019-05-10T05:54:04.424Z,24.10
2019-05-10T05:56:36.381Z,22.60
2019-05-10T05:59:08.897Z,26.27
2019-05-10T06:01:40.837Z,24.43
2019-05-10T06:04:12.896Z,30.90
2019-05-10T06:06:44.695Z,23.83
2019-05-10T06:09:16.440Z,22.87
2019-05-10T06:11:48.157Z,24.40
2019-05-10T06:14:20.110Z,23.17
2019-05-10T06:16:53.216Z,22.97
2019-05-10T06:19:29.374Z,25.13
2019-05-10T06:22:04.683Z,22.80
2019-05-10T06:24:34.283Z,24.43
2019-05-10T06:27:05.627Z,22.30
2019-05-10T06:29:37.252Z,25.93
2019-05-10T06:32:09.974Z,26.60
2019-05-10T06:34:43.378Z,28.57
2019-05-10T06:37:15.125Z,24.77
2019-05-10T06:39:46.778Z,26.93
2019-05-10T06:42:18.465Z,25.63
2019-05-10T06:44:50.195Z,26.00
2019-05-10T06:47:22.164Z,26.90
2019-05-10T06:49:54.027Z,28.67
2019-05-10T06:52:28.025Z,31.30
2019-05-10T06:54:59.127Z,29.87
2019-05-10T06:57:30.859Z,29.03
2019-05-10T07:00:06.491Z,26.37
2019-05-10T07:02:37.123Z,24.87
2019-05-10T07:05:08.942Z,23.80
2019-05-10T07:11:16.993Z,21.13
2019-05-10T07:13:52.832Z,17.50
2019-05-10T07:16:25.557Z,18.20
2019-05-10T07:19:00.672Z,12.73
2019-05-10T07:21:28.930Z,14.07
2019-05-10T07:24:00.653Z,15.80
2019-05-10T07:26:32.431Z,14.23
2019-05-10T07:29:04.099Z,13.00
2019-05-10T07:31:37.402Z,11.67
2019-05-10T07:34:09.630Z,10.80
2019-05-10T07:36:42.352Z,7.77
2019-05-10T07:39:14.239Z,6.73
2019-05-10T07:41:45.878Z,6.40
2019-05-10T07:44:17.549Z,6.67
2019-05-10T07:46:53.916Z,6.57
2019-05-10T07:49:23.815Z,6.90
2019-05-10T07:52:02.122Z,6.70
2019-05-10T07:54:29.439Z,7.40
2019-05-10T07:57:01.182Z,8.10
2019-05-10T07:59:49.621Z,9.67
2019-05-10T08:02:12.679Z,10.23
2019-05-10T08:04:39.831Z,10.57
2019-05-10T08:07:11.749Z,11.13
2019-05-10T08:09:45.259Z,10.60
2019-05-10T08:12:19.291Z,12.07
2019-05-10T08:14:53.557Z,11.17
2019-05-10T08:17:23.848Z,11.00
2019-05-10T08:19:55.498Z,10.40
2019-05-10T08:22:27.134Z,10.60
2019-05-10T08:24:58.762Z,11.17
2019-05-10T08:27:32.321Z,13.07
2019-05-10T08:30:22.516Z,12.63
2019-05-10T08:32:42.340Z,12.43
2019-05-10T08:35:17.117Z,12.60
2019-05-10T08:37:47.254Z,11.73
2019-05-10T08:40:19.657Z,12.47
2019-05-10T08:43:00.188Z,13.57
2019-05-10T08:45:25.913Z,12.53
2019-05-10T08:48:00.577Z,12.53
2019-05-10T08:50:48.932Z,11.67
2019-05-10T08:53:10.897Z,12.33
2019-05-10T08:55:43.283Z,10.80
2019-05-10T08:58:14.396Z,10.50
2019-05-10T09:00:55.115Z,11.53
2019-05-10T09:03:19.633Z,11.80
2019-05-10T09:05:52.465Z,10.07
2019-05-10T09:08:29.616Z,11.27
2019-05-10T09:11:06.351Z,10.83
2019-05-10T09:13:40.933Z,11.40
2019-05-10T09:16:08.608Z,10.70
2019-05-10T09:18:46.709Z,11.20
2019-05-10T09:21:15.020Z,11.90
2019-05-10T09:23:52.908Z,11.90
2019-05-10T09:26:22.710Z,11.90
2019-05-10T09:28:57.539Z,12.53
2019-05-10T09:31:27.815Z,11.20
2019-05-10T09:34:02.464Z,6.40
2019-05-10T09:36:36.202Z,8.50
2019-05-10T09:39:09.109Z,8.73
2019-05-10T09:41:42.191Z,7.80
2019-05-10T09:44:14.807Z,8.20
2019-05-10T09:46:46.530Z,7.73
2019-05-10T09:49:18.700Z,8.00
2019-05-10T09:51:52.748Z,8.13
2019-05-10T09:54:29.405Z,6.47
2019-05-10T09:56:59.754Z,5.40
2019-05-10T09:59:31.460Z,5.10
2019-05-10T10:02:05.019Z,3.47
2019-05-10T10:04:37.228Z,3.77
2019-05-10T10:07:09.044Z,3.33
2019-05-10T10:09:44.728Z,2.90
2019-05-10T10:12:17.362Z,3.67
2019-05-10T10:14:48.407Z,2.90
2019-05-10T10:17:20.650Z,3.70
2019-05-10T10:19:52.432Z,3.30
2019-05-10T10:22:24.201Z,3.53
2019-05-10T10:25:00.492Z,3.70
2019-05-10T10:27:34.655Z,2.83
2019-05-10T10:30:06.672Z,3.30
2019-05-10T10:32:37.641Z,4.03
2019-05-10T10:35:13.366Z,4.20
2019-05-10T10:37:42.858Z,3.60
2019-05-10T10:40:17.708Z,3.30
2019-05-10T10:42:48.056Z,3.00
2019-05-10T10:45:21.944Z,4.80
2019-05-10T10:47:53.602Z,3.87
2019-05-10T10:50:27.683Z,2.83
2019-05-10T10:52:59.402Z,3.33
2019-05-10T10:55:36.610Z,2.80
2019-05-10T10:58:07.162Z,2.43
2019-05-10T11:00:39.280Z,1.90
2019-05-10T11:03:11.436Z,1.80
2019-05-10T11:05:43.114Z,2.73
2019-05-10T11:08:14.822Z,3.40
2019-05-10T11:10:47.731Z,2.43
2019-05-10T11:13:39.903Z,2.40
2019-05-10T11:15:52.813Z,2.30
2019-05-10T11:18:24.606Z,2.40
2019-05-10T11:20:56.262Z,2.33
2019-05-10T11:23:34.096Z,2.03
2019-05-10T11:26:01.546Z,1.53
2019-05-10T11:28:38.627Z,1.33
2019-05-10T11:31:07.618Z,2.30
2019-05-10T11:33:41.468Z,2.00
2019-05-10T11:36:14.997Z,2.20
2019-05-10T11:38:51.979Z,2.77
2019-05-10T11:41:23.717Z,2.53
2019-05-10T11:43:57.920Z,2.17
2019-05-10T11:46:28.261Z,2.10
2019-05-10T11:49:01.895Z,1.90
2019-05-10T11:51:33.710Z,2.17
2019-05-10T11:54:05.501Z,3.10
2019-05-10T11:56:37.399Z,2.37
2019-05-10T11:59:12.367Z,1.90
2019-05-10T12:01:42.452Z,2.70
2019-05-10T12:04:24.078Z,2.13
2019-05-10T12:06:51.485Z,1.80
2019-05-10T12:09:24.397Z,2.10
2019-05-10T12:11:56.625Z,1.90
2019-05-10T12:14:27.683Z,1.90
2019-05-10T12:17:02.284Z,1.83
2019-05-10T12:22:06.221Z,2.30
2019-05-10T12:24:52.529Z,2.30
2019-05-10T12:26:18.753Z,2.50
2019-05-10T12:27:24.845Z,2.73
2019-05-10T12:29:46.721Z,2.50
2019-05-10T12:32:21.134Z,2.70
2019-05-10T12:34:56.289Z,2.80
2019-05-10T12:37:25.162Z,2.10
2019-05-10T12:40:06.273Z,2.30
2019-05-10T12:42:31.765Z,2.80
2019-05-10T12:45:06.067Z,2.33
2019-05-10T12:47:37.736Z,3.23
2019-05-10T12:50:09.680Z,2.10
2019-05-10T12:52:43.184Z,1.90
2019-05-10T12:55:14.795Z,2.43
2019-05-10T12:57:46.398Z,2.70
2019-05-10T13:00:18.288Z,2.47
2019-05-10T13:02:53.038Z,3.20
2019-05-10T13:05:31.244Z,2.90
2019-05-10T13:07:56.711Z,2.40
2019-05-10T13:10:30.044Z,2.37
2019-05-10T13:13:01.879Z,2.13
2019-05-10T13:15:33.615Z,2.70
2019-05-10T13:18:05.579Z,1.80
2019-05-10T13:20:39.354Z,1.73
2019-05-10T13:23:16.345Z,2.00
2019-05-10T13:25:44.403Z,2.07
2019-05-10T13:28:16.176Z,1.60
2019-05-10T13:30:47.789Z,1.97
2019-05-10T13:33:28.913Z,1.90
2019-05-10T13:35:56.510Z,1.60
2019-05-10T13:38:28.433Z,1.83
2019-05-10T13:41:00.034Z,2.20
2019-05-10T13:43:31.680Z,1.83
2019-05-10T13:46:03.450Z,2.20
2019-05-10T13:48:35.130Z,1.80
2019-05-10T13:51:06.935Z,2.00
2019-05-10T13:53:38.802Z,1.77
2019-05-10T13:56:10.410Z,1.50
2019-05-10T13:58:42.050Z,2.37
2019-05-10T14:01:14.841Z,1.80
2019-05-10T14:03:53.926Z,2.23
2019-05-10T14:06:21.170Z,2.03
2019-05-10T14:08:52.798Z,1.90
2019-05-10T14:11:24.471Z,1.73
2019-05-10T14:13:56.388Z,2.40
2019-05-10T14:16:28.040Z,1.80
2019-05-10T14:18:59.693Z,2.07
2019-05-10T14:21:31.405Z,2.70
2019-05-10T14:24:03.205Z,1.67
2019-05-10T14:26:34.831Z,1.83
2019-05-10T14:29:06.519Z,2.70
2019-05-10T14:31:38.236Z,1.83
2019-05-10T14:34:25.588Z,2.30
2019-05-10T14:36:57.224Z,1.63
2019-05-10T14:39:29.010Z,1.83
2019-05-10T14:42:00.803Z,1.93
2019-05-10T14:44:32.412Z,1.93
2019-05-10T14:47:05.042Z,2.00
2019-05-10T14:49:42.057Z,2.43
2019-05-10T14:52:10.377Z,3.20
2019-05-10T14:54:44.098Z,2.30
2019-05-10T14:57:15.354Z,2.23
2019-05-10T14:59:47.093Z,2.50
2019-05-10T15:02:22.628Z,2.63
2019-05-10T15:05:00.913Z,2.27
2019-05-10T15:07:30.449Z,2.33
2019-05-10T15:10:02.552Z,2.23
2019-05-10T15:12:34.297Z,2.27
2019-05-10T15:15:07.027Z,1.83
2019-05-10T15:17:38.856Z,1.70
2019-05-10T15:20:10.637Z,2.47
2019-05-10T15:22:44.857Z,2.20
2019-05-10T15:25:16.789Z,2.10
2019-05-10T15:27:48.499Z,2.00
2019-05-10T15:30:22.048Z,2.20
2019-05-10T15:32:55.860Z,2.20
2019-05-10T15:35:28.056Z,2.77
2019-05-10T15:38:00.008Z,2.07
2019-05-10T15:40:31.653Z,1.70
2019-05-10T15:43:03.381Z,2.10
2019-05-10T15:45:36.095Z,2.83
2019-05-10T15:48:07.889Z,2.10
2019-05-10T15:50:41.121Z,2.23
2019-05-10T15:53:13.055Z,1.57
2019-05-10T15:55:44.733Z,2.53
2019-05-10T15:58:16.456Z,2.30
2019-05-10T16:00:48.144Z,2.03
2019-05-10T16:03:19.984Z,2.40
2019-05-10T16:06:00.350Z,2.50
2019-05-10T16:08:30.447Z,3.20
2019-05-10T16:10:58.335Z,1.70
2019-05-10T16:13:29.995Z,2.70
2019-05-10T16:16:02.710Z,2.10
2019-05-10T16:18:39.913Z,2.37
2019-05-10T16:21:09.604Z,3.00
2019-05-10T16:23:46.070Z,2.23
2019-05-10T16:26:17.353Z,3.23
2019-05-10T16:28:53.083Z,2.03
2019-05-10T16:31:21.442Z,2.40
2019-05-10T16:33:53.738Z,3.10
2019-05-10T16:36:28.419Z,2.30
2019-05-10T16:39:01.749Z,2.80
2019-05-10T16:41:34.346Z,3.00
2019-05-10T16:44:06.223Z,3.30
2019-05-10T16:46:37.904Z,3.13
2019-05-10T16:49:15.415Z,2.50
2019-05-10T16:51:47.866Z,2.77
2019-05-10T16:54:25.774Z,2.90
2019-05-10T16:56:59.360Z,3.40
2019-05-10T16:59:29.866Z,2.97
2019-05-10T17:02:06.203Z,2.80
2019-05-10T17:04:37.534Z,2.00
2019-05-10T17:07:19.011Z,2.60
2019-05-10T17:09:49.423Z,3.47
2019-05-10T17:12:27.604Z,4.23
2019-05-10T17:15:02.416Z,4.00
2019-05-10T17:17:31.256Z,2.73
2019-05-10T17:20:07.545Z,2.70
2019-05-10T17:22:37.252Z,3.03
2019-05-10T17:25:10.237Z,2.67
2019-05-10T17:27:43.205Z,3.00
2019-05-10T17:30:21.534Z,4.73
2019-05-10T17:32:50.352Z,2.50
2019-05-10T17:35:23.470Z,2.30
2019-05-10T17:37:55.235Z,3.50
2019-05-10T17:40:27.163Z,2.67
2019-05-10T17:43:01.532Z,2.30
2019-05-10T17:45:34.780Z,3.10
2019-05-10T17:48:08.708Z,2.63
2019-05-10T17:50:40.331Z,3.13
2019-05-10T17:53:14.495Z,2.27
2019-05-10T17:55:49.344Z,2.60
2019-05-10T17:58:27.667Z,3.20
2019-05-10T18:00:56.566Z,2.63
2019-05-10T18:03:28.473Z,2.80
2019-05-10T18:06:00.458Z,2.50
2019-05-10T18:08:32.335Z,2.93
2019-05-10T18:11:06.234Z,2.87
2019-05-10T18:13:40.752Z,2.73
2019-05-10T18:16:11.527Z,2.33
2019-05-10T18:18:46.886Z,2.07
2019-05-10T18:21:22.049Z,3.00
2019-05-10T18:23:52.571Z,2.60
2019-05-10T18:26:24.112Z,3.03
2019-05-10T18:28:55.806Z,2.30
2019-05-10T18:31:28.097Z,3.23
2019-05-10T18:33:59.971Z,2.80
2019-05-10T18:36:50.518Z,2.43
2019-05-10T18:39:08.934Z,2.40
2019-05-10T18:41:46.362Z,2.43
2019-05-10T18:44:16.030Z,2.60
2019-05-10T18:46:48.285Z,3.00
2019-05-10T18:49:20.389Z,3.20
2019-05-10T18:51:52.471Z,3.73
2019-05-10T18:54:24.497Z,2.83
2019-05-10T18:56:56.507Z,3.20
2019-05-10T18:59:28.562Z,2.90
2019-05-10T19:02:00.601Z,2.50
2019-05-10T19:04:32.570Z,3.03
2019-05-10T19:07:09.764Z,3.20
2019-05-10T19:09:38.208Z,2.80
2019-05-10T19:12:18.001Z,3.20
2019-05-10T19:14:43.915Z,3.77
2019-05-10T19:17:16.129Z,3.03
2019-05-10T19:19:49.456Z,3.17
2019-05-10T19:22:21.636Z,3.73
2019-05-10T19:24:56.935Z,3.17
2019-05-10T19:27:27.949Z,3.73
2019-05-10T19:30:00.225Z,3.10
2019-05-10T19:32:33.940Z,2.80
2019-05-10T19:35:07.665Z,3.03
2019-05-10T19:37:41.068Z,3.50
2019-05-10T19:40:13.060Z,3.87
2019-05-10T19:42:45.076Z,3.40
2019-05-10T19:45:19.182Z,3.50
2019-05-10T19:47:55.613Z,3.60
2019-05-10T19:50:30.599Z,3.30
2019-05-10T19:52:58.342Z,3.80
2019-05-10T19:55:31.313Z,3.07
2019-05-10T19:58:03.186Z,3.20
2019-05-10T20:00:35.530Z,3.73
2019-05-10T20:03:07.422Z,8.00
2019-05-10T20:05:39.236Z,4.40
2019-05-10T20:08:11.374Z,3.80
2019-05-10T20:10:43.293Z,3.70
2019-05-10T20:13:16.367Z,3.60
2019-05-10T20:15:48.191Z,3.37
2019-05-10T20:18:20.027Z,4.43
2019-05-10T20:20:51.968Z,3.37
2019-05-10T20:23:23.735Z,4.33
2019-05-10T20:25:59.304Z,5.60
2019-05-10T20:28:30.186Z,6.57
2019-05-10T20:31:02.052Z,9.43
2019-05-10T20:33:33.844Z,10.67
2019-05-10T20:36:06.767Z,10.00
2019-05-10T20:38:38.583Z,6.53
2019-05-10T20:41:13.147Z,7.93
2019-05-10T20:43:44.074Z,6.60
2019-05-10T20:46:15.775Z,8.50
2019-05-10T20:48:47.649Z,6.13
2019-05-10T20:51:20.344Z,5.90
2019-05-10T20:53:52.118Z,4.93
2019-05-10T20:56:23.901Z,5.23
2019-05-10T20:58:56.146Z,5.07
2019-05-10T21:01:28.057Z,4.37
2019-05-10T21:03:59.754Z,5.23
2019-05-10T21:06:31.523Z,4.60
2019-05-10T21:09:04.025Z,5.93
2019-05-10T21:11:35.826Z,5.20
2019-05-10T21:14:07.584Z,4.77
2019-05-10T21:16:39.228Z,5.70
2019-05-10T21:19:11.362Z,5.10
2019-05-10T21:21:43.061Z,6.30
2019-05-10T21:24:14.683Z,5.10
2019-05-10T21:26:46.450Z,4.93
2019-05-10T21:29:18.139Z,5.20
2019-05-10T21:31:49.784Z,5.17
2019-05-10T21:34:21.534Z,5.90
2019-05-10T21:36:53.348Z,6.17
2019-05-10T21:39:25.194Z,6.73
2019-05-10T21:41:56.940Z,7.10
2019-05-10T21:44:28.771Z,5.50
2019-05-10T21:47:02.416Z,5.90
2019-05-10T21:49:34.293Z,5.23
2019-05-10T21:52:06.487Z,5.80
2019-05-10T21:54:38.347Z,6.83
2019-05-10T21:57:16.567Z,6.93
2019-05-10T21:59:48.346Z,5.30
2019-05-10T22:02:20.295Z,5.50
2019-05-10T22:04:54.738Z,5.97
2019-05-10T22:07:26.536Z,6.90
2019-05-10T22:09:58.295Z,6.37
2019-05-10T22:12:33.016Z,6.70
2019-05-10T22:15:06.274Z,7.43
2019-05-10T22:17:38.174Z,8.30
2019-05-10T22:20:12.693Z,7.07
2019-05-10T22:22:44.640Z,7.70
2019-05-10T22:25:16.474Z,8.10
2019-05-10T22:27:48.431Z,7.03
2019-05-10T22:30:20.384Z,6.93
2019-05-10T22:32:55.541Z,7.73
2019-05-10T22:35:30.861Z,6.53
2019-05-10T22:38:05.634Z,6.73
2019-05-10T22:40:40.035Z,6.40
2019-05-10T22:43:11.690Z,7.20
2019-05-10T22:45:43.550Z,7.30
2019-05-10T22:48:16.669Z,7.20
2019-05-10T22:50:51.255Z,7.27
2019-05-10T22:53:23.076Z,7.57
2019-05-10T22:55:54.935Z,7.77
2019-05-10T22:58:26.795Z,7.33
2019-05-10T23:00:58.711Z,6.47
2019-05-10T23:03:32.118Z,7.43
2019-05-10T23:06:05.785Z,7.63
2019-05-10T23:08:37.552Z,6.00
2019-05-10T23:11:09.793Z,7.57
2019-05-10T23:13:41.484Z,7.37
2019-05-10T23:16:13.292Z,8.00
2019-05-10T23:18:45.033Z,8.00
2019-05-10T23:21:16.796Z,7.50
2019-05-10T23:23:48.441Z,7.10
2019-05-10T23:26:20.111Z,7.10
2019-05-10T23:28:52.877Z,9.30
2019-05-10T23:31:26.649Z,8.77
2019-05-10T23:33:58.649Z,8.03
2019-05-10T23:36:30.956Z,7.80
2019-05-10T23:39:02.821Z,8.30
2019-05-10T23:41:34.792Z,8.27
2019-05-10T23:44:06.535Z,8.40
2019-05-10T23:46:38.200Z,7.67
2019-05-10T23:49:09.941Z,8.70
2019-05-10T23:51:41.790Z,8.07
2019-05-10T23:54:13.439Z,9.17
2019-05-10T23:56:46.472Z,8.93
2019-05-10T23:59:18.320Z,8.70
